Time;durP1;ratioP1;P1;durP2;ratioP2;P2;SDS_P1;SDS_P2;PMS_P1;PMS_P2;Temp;Humidity;BMP_temperature;BMP_pressure;BME280_temperature;BME280_humidity;BME280_pressure;Samples;Min_cycle;Max_cycle;Signal;HPM_P1;HPM_P2
2022/01/25 00:09:14;;;;;;;13.87;8.13;;;;;;;;;;5081285;28;20291;-74
2022/01/25 00:15:09;;;;;;;17.57;8.53;;;;;;;;;;5019295;28;20853;-74
2022/01/25 00:26:03;;;;;;;16.07;9.13;;;;;;;;;;5077133;28;20715;-75
2022/01/25 00:28:43;;;;;;;16.53;8.93;;;;;;;;;;5076583;28;20688;-75
2022/01/25 00:31:13;;;;;;;16.37;9.43;;;;;;;;;;5077927;28;20208;-75
2022/01/25 00:33:41;;;;;;;16.53;9.00;;;;;;;;;;5081303;28;20217;-73
2022/01/25 00:36:09;;;;;;;17.97;9.17;;;;;;;;;;5079059;28;20224;-75
2022/01/25 00:38:37;;;;;;;19.03;10.07;;;;;;;;;;5080881;28;20647;-74
2022/01/25 00:41:05;;;;;;;17.53;10.10;;;;;;;;;;5078848;28;20204;-74
2022/01/25 00:43:32;;;;;;;15.90;9.93;;;;;;;;;;5075587;28;20221;-75
2022/01/25 00:46:04;;;;;;;15.00;9.53;;;;;;;;;;5076928;28;20212;-75
2022/01/25 00:48:42;;;;;;;21.17;9.70;;;;;;;;;;5075600;28;20217;-74
2022/01/25 00:51:20;;;;;;;18.30;9.83;;;;;;;;;;5079870;28;20218;-75
2022/01/25 00:53:56;;;;;;;21.17;10.03;;;;;;;;;;5075090;28;20693;-75
2022/01/25 00:56:25;;;;;;;19.67;9.93;;;;;;;;;;5076493;28;20202;-75
2022/01/25 00:58:53;;;;;;;17.57;9.43;;;;;;;;;;5075044;28;20210;-75
2022/01/25 01:01:20;;;;;;;17.53;10.23;;;;;;;;;;5075986;28;20213;-75
2022/01/25 01:03:48;;;;;;;16.57;9.73;;;;;;;;;;5075663;28;20713;-75
2022/01/25 01:06:16;;;;;;;16.60;8.93;;;;;;;;;;5076166;28;20203;-74
2022/01/25 01:08:43;;;;;;;18.93;9.17;;;;;;;;;;5077771;28;20252;-75
2022/01/25 01:11:15;;;;;;;17.10;7.90;;;;;;;;;;5075211;28;20212;-75
2022/01/25 01:14:00;;;;;;;13.83;7.90;;;;;;;;;;5077878;28;20232;-75
2022/01/25 01:30:20;;;;;;;16.40;8.80;;;;;;;;;;5076722;28;20241;-75
2022/01/25 01:33:18;;;;;;;17.83;9.63;;;;;;;;;;5075737;28;20226;-73
2022/01/25 01:41:52;;;;;;;16.87;8.80;;;;;;;;;;5059007;27;20630;-76
2022/01/25 01:44:21;;;;;;;17.43;9.33;;;;;;;;;;5054434;28;20313;-73
2022/01/25 01:47:02;;;;;;;17.17;9.93;;;;;;;;;;5053413;28;20248;-73
2022/01/25 01:49:30;;;;;;;16.87;9.40;;;;;;;;;;5056780;28;20207;-74
2022/01/25 01:51:57;;;;;;;16.03;9.27;;;;;;;;;;5056236;28;20202;-73
2022/01/25 01:54:24;;;;;;;16.37;9.73;;;;;;;;;;5056063;28;20222;-74
2022/01/25 01:56:53;;;;;;;19.43;10.50;;;;;;;;;;5051488;28;20213;-74
2022/01/25 01:59:20;;;;;;;19.10;10.77;;;;;;;;;;5053838;28;20232;-73
2022/01/25 02:01:48;;;;;;;20.00;11.43;;;;;;;;;;5052879;28;20215;-74
2022/01/25 02:04:16;;;;;;;21.50;11.10;;;;;;;;;;5054571;28;20249;-74
2022/01/25 02:06:43;;;;;;;19.77;10.73;;;;;;;;;;5054550;28;20300;-72
2022/01/25 02:09:11;;;;;;;19.90;9.67;;;;;;;;;;5053821;28;20570;-73
2022/01/25 02:11:39;;;;;;;17.13;9.70;;;;;;;;;;5056756;28;20194;-74
2022/01/25 02:14:09;;;;;;;20.70;10.03;;;;;;;;;;5051671;28;20226;-73
2022/01/25 02:16:44;;;;;;;27.80;9.93;;;;;;;;;;5053676;28;20194;-74
2022/01/25 02:24:46;;;;;;;17.73;9.57;;;;;;;;;;5045367;28;20195;-73
2022/01/25 02:27:13;;;;;;;16.30;9.40;;;;;;;;;;5053651;28;20195;-74
2022/01/25 02:29:41;;;;;;;20.47;10.47;;;;;;;;;;5052077;28;20190;-74
2022/01/25 02:32:08;;;;;;;19.03;10.33;;;;;;;;;;5057219;28;20204;-75
2022/01/25 02:34:36;;;;;;;21.57;9.97;;;;;;;;;;5054746;28;20226;-75
2022/01/25 02:37:07;;;;;;;19.63;10.23;;;;;;;;;;5053947;28;20203;-75
2022/01/25 02:39:37;;;;;;;19.30;10.17;;;;;;;;;;5051072;28;20217;-75
2022/01/25 02:42:05;;;;;;;21.23;10.70;;;;;;;;;;5054406;28;20643;-74
2022/01/25 02:44:34;;;;;;;21.57;10.77;;;;;;;;;;5053466;28;20226;-74
2022/01/25 02:49:46;;;;;;;18.43;9.80;;;;;;;;;;5053929;28;20206;-74
2022/01/25 02:52:15;;;;;;;19.80;10.77;;;;;;;;;;5043424;28;20213;-74
2022/01/25 02:54:42;;;;;;;20.37;10.40;;;;;;;;;;5041022;28;20221;-74
2022/01/25 02:57:09;;;;;;;18.03;9.90;;;;;;;;;;5041510;28;20199;-75
2022/01/25 02:59:36;;;;;;;19.30;10.47;;;;;;;;;;5040008;28;20214;-73
2022/01/25 03:02:04;;;;;;;20.70;11.10;;;;;;;;;;5038034;28;20212;-75
2022/01/25 03:04:31;;;;;;;20.63;11.17;;;;;;;;;;5040953;28;20227;-74
2022/01/25 03:06:58;;;;;;;20.57;11.43;;;;;;;;;;5041947;28;20299;-75
2022/01/25 03:09:27;;;;;;;18.97;10.57;;;;;;;;;;5038052;28;20291;-75
2022/01/25 03:11:55;;;;;;;21.93;11.43;;;;;;;;;;5039483;28;20281;-75
2022/01/25 03:14:26;;;;;;;20.40;10.80;;;;;;;;;;5039486;28;20228;-75
2022/01/25 03:17:07;;;;;;;22.40;11.60;;;;;;;;;;5039489;28;20256;-75
2022/01/25 03:22:43;;;;;;;22.77;11.90;;;;;;;;;;5031578;28;20206;-74
2022/01/25 03:25:12;;;;;;;21.63;10.60;;;;;;;;;;5039866;28;21101;-75
2022/01/25 03:27:39;;;;;;;18.33;10.20;;;;;;;;;;5039810;28;20294;-75
2022/01/25 03:30:07;;;;;;;18.40;9.57;;;;;;;;;;5039810;28;20564;-74
2022/01/25 03:32:34;;;;;;;20.50;10.60;;;;;;;;;;5038878;28;20666;-75
2022/01/25 03:35:01;;;;;;;19.47;9.97;;;;;;;;;;5038561;28;20298;-74
2022/01/25 03:37:28;;;;;;;17.70;9.40;;;;;;;;;;5039004;28;20214;-75
2022/01/25 03:39:56;;;;;;;17.53;9.40;;;;;;;;;;5037940;28;20233;-75
2022/01/25 03:42:25;;;;;;;23.67;10.50;;;;;;;;;;5039904;28;20209;-75
2022/01/25 03:44:52;;;;;;;23.93;11.53;;;;;;;;;;5041676;28;20231;-74
2022/01/25 03:47:29;;;;;;;22.57;10.60;;;;;;;;;;5040487;28;20303;-74
2022/01/25 03:49:56;;;;;;;19.00;10.57;;;;;;;;;;5040645;28;20211;-75
2022/01/25 03:52:27;;;;;;;21.53;11.07;;;;;;;;;;5040431;28;20355;-75
2022/01/25 03:54:55;;;;;;;20.60;10.93;;;;;;;;;;5040547;28;20199;-75
2022/01/25 03:57:22;;;;;;;22.43;11.07;;;;;;;;;;5040267;28;20239;-75
2022/01/25 03:59:51;;;;;;;21.07;10.87;;;;;;;;;;5043082;28;20231;-75
2022/01/25 04:02:18;;;;;;;18.57;10.67;;;;;;;;;;5040823;28;20290;-75
2022/01/25 04:04:46;;;;;;;24.80;11.30;;;;;;;;;;5034774;28;20324;-75
2022/01/25 04:07:16;;;;;;;21.87;11.63;;;;;;;;;;5039812;28;20206;-74
2022/01/25 04:09:43;;;;;;;23.10;11.20;;;;;;;;;;5040772;28;20207;-74
2022/01/25 04:12:13;;;;;;;21.47;10.90;;;;;;;;;;5044658;28;20688;-74
2022/01/25 04:14:40;;;;;;;20.17;11.00;;;;;;;;;;5042090;28;20865;-75
2022/01/25 04:17:12;;;;;;;29.47;11.03;;;;;;;;;;5042004;28;20681;-75
2022/01/25 04:19:43;;;;;;;21.33;10.87;;;;;;;;;;5044466;28;20207;-74
2022/01/25 04:25:13;;;;;;;20.47;10.63;;;;;;;;;;5038048;28;20194;-74
2022/01/25 04:27:40;;;;;;;18.23;9.87;;;;;;;;;;5037408;28;20210;-74
2022/01/25 04:30:09;;;;;;;21.97;11.07;;;;;;;;;;5036337;28;20203;-75
2022/01/25 04:32:42;;;;;;;21.93;11.10;;;;;;;;;;5037681;28;20294;-74
2022/01/25 04:35:28;;;;;;;18.90;10.27;;;;;;;;;;5036079;28;20203;-74
2022/01/25 04:49:03;;;;;;;18.03;9.50;;;;;;;;;;5039144;28;20226;-74
2022/01/25 04:54:25;;;;;;;22.57;9.90;;;;;;;;;;5041433;28;20237;-74
2022/01/25 04:57:00;;;;;;;19.17;9.80;;;;;;;;;;5038133;28;20221;-74
2022/01/25 04:59:33;;;;;;;21.03;10.70;;;;;;;;;;5040810;28;20202;-74
2022/01/25 05:02:05;;;;;;;34.63;11.50;;;;;;;;;;5040592;28;20281;-75
2022/01/25 05:04:40;;;;;;;27.53;11.97;;;;;;;;;;5034360;28;20314;-74
2022/01/25 05:07:26;;;;;;;23.60;10.93;;;;;;;;;;5036692;28;20202;-75
2022/01/25 05:09:54;;;;;;;23.07;10.17;;;;;;;;;;5037711;28;20553;-75
2022/01/25 05:12:31;;;;;;;24.93;10.57;;;;;;;;;;5036834;28;20670;-75
2022/01/25 05:15:01;;;;;;;23.27;9.70;;;;;;;;;;5034750;28;20777;-74
2022/01/25 05:17:36;;;;;;;24.37;10.03;;;;;;;;;;5035847;28;20207;-74
2022/01/25 05:22:48;;;;;;;20.73;9.20;;;;;;;;;;5034664;28;20222;-74
2022/01/25 05:25:15;;;;;;;23.20;9.40;;;;;;;;;;5034266;28;20211;-74
2022/01/25 05:27:43;;;;;;;22.63;9.13;;;;;;;;;;5042301;28;20310;-74
2022/01/25 05:30:10;;;;;;;21.43;9.40;;;;;;;;;;5038967;28;20203;-74
2022/01/25 05:32:38;;;;;;;23.87;10.47;;;;;;;;;;5038420;28;20622;-74
2022/01/25 05:35:06;;;;;;;22.43;9.63;;;;;;;;;;5033630;28;20221;-74
2022/01/25 05:37:40;;;;;;;23.97;9.77;;;;;;;;;;5036966;28;20582;-74
2022/01/25 05:40:13;;;;;;;24.70;10.33;;;;;;;;;;5039389;28;20237;-74
2022/01/25 05:45:38;;;;;;;21.97;9.77;;;;;;;;;;4999664;28;20211;-75
2022/01/25 05:48:05;;;;;;;23.27;10.23;;;;;;;;;;5037657;28;20214;-74
2022/01/25 05:50:34;;;;;;;23.43;10.23;;;;;;;;;;5034338;28;20207;-74
2022/01/25 05:53:02;;;;;;;20.80;10.00;;;;;;;;;;5036230;28;20234;-75
2022/01/25 05:55:29;;;;;;;23.37;10.27;;;;;;;;;;5037304;28;20210;-75
2022/01/25 05:57:56;;;;;;;24.67;9.67;;;;;;;;;;5039697;28;20202;-74
2022/01/25 06:00:23;;;;;;;20.63;10.10;;;;;;;;;;5033369;28;20296;-75
2022/01/25 06:02:54;;;;;;;26.67;10.93;;;;;;;;;;5041281;28;20227;-75
2022/01/25 06:05:23;;;;;;;25.90;10.40;;;;;;;;;;5039191;28;20661;-74
2022/01/25 06:07:52;;;;;;;23.77;10.13;;;;;;;;;;5042243;28;20199;-75
2022/01/25 06:10:19;;;;;;;23.70;9.73;;;;;;;;;;5043909;28;20233;-75
2022/01/25 06:12:46;;;;;;;25.80;10.27;;;;;;;;;;5035124;28;20341;-75
2022/01/25 06:15:13;;;;;;;22.00;9.73;;;;;;;;;;5036715;28;20235;-75
2022/01/25 06:17:41;;;;;;;25.30;9.67;;;;;;;;;;5041308;28;20584;-75
2022/01/25 06:20:09;;;;;;;20.87;8.90;;;;;;;;;;5037236;28;20282;-75
2022/01/25 06:22:36;;;;;;;21.37;8.93;;;;;;;;;;5035481;28;20314;-74
2022/01/25 06:25:05;;;;;;;23.90;10.00;;;;;;;;;;5037213;28;20203;-74
2022/01/25 06:27:32;;;;;;;27.07;9.90;;;;;;;;;;5038931;28;20207;-75
2022/01/25 06:29:59;;;;;;;23.50;9.73;;;;;;;;;;5032706;28;20215;-74
2022/01/25 06:32:26;;;;;;;21.70;9.00;;;;;;;;;;5028817;28;20203;-74
2022/01/25 06:34:53;;;;;;;24.53;9.40;;;;;;;;;;5031570;28;20678;-75
2022/01/25 06:37:21;;;;;;;25.50;8.67;;;;;;;;;;5029438;28;20221;-75
2022/01/25 06:39:49;;;;;;;20.80;9.27;;;;;;;;;;5030859;28;20213;-74
2022/01/25 06:42:18;;;;;;;23.73;9.23;;;;;;;;;;5031929;28;20223;-75
2022/01/25 06:44:45;;;;;;;23.13;9.90;;;;;;;;;;5036219;28;20235;-74
2022/01/25 06:47:12;;;;;;;24.20;9.63;;;;;;;;;;5042494;28;20204;-74
2022/01/25 06:49:39;;;;;;;20.90;9.43;;;;;;;;;;5037000;28;20231;-74
2022/01/25 06:52:07;;;;;;;29.50;10.67;;;;;;;;;;5045684;28;20571;-74
2022/01/25 06:54:34;;;;;;;23.20;9.40;;;;;;;;;;5042916;28;20265;-74
2022/01/25 06:57:01;;;;;;;21.97;9.60;;;;;;;;;;5044548;28;20225;-74
2022/01/25 06:59:29;;;;;;;22.23;9.10;;;;;;;;;;5043638;28;20733;-74
2022/01/25 07:01:56;;;;;;;22.67;9.47;;;;;;;;;;5044923;28;20307;-75
2022/01/25 07:04:24;;;;;;;24.40;9.10;;;;;;;;;;5043936;28;20228;-74
2022/01/25 07:06:51;;;;;;;19.70;9.03;;;;;;;;;;5044408;28;20203;-74
2022/01/25 07:09:18;;;;;;;22.83;9.50;;;;;;;;;;5043174;28;20207;-74
2022/01/25 07:11:45;;;;;;;22.20;8.60;;;;;;;;;;5045254;28;20226;-73
2022/01/25 07:14:13;;;;;;;23.20;8.80;;;;;;;;;;5042727;28;20332;-74
2022/01/25 07:16:41;;;;;;;24.13;9.10;;;;;;;;;;5047287;28;20206;-74
2022/01/25 07:19:08;;;;;;;23.30;9.63;;;;;;;;;;5045000;28;20218;-75
2022/01/25 07:21:36;;;;;;;23.47;9.73;;;;;;;;;;5043927;28;20349;-75
2022/01/25 07:24:03;;;;;;;27.20;9.77;;;;;;;;;;5044486;28;20579;-74
2022/01/25 07:26:30;;;;;;;29.33;11.13;;;;;;;;;;5044156;28;20289;-75
2022/01/25 07:28:57;;;;;;;25.93;9.97;;;;;;;;;;5045475;28;20696;-74
2022/01/25 07:31:24;;;;;;;24.70;9.77;;;;;;;;;;5043476;28;20246;-75
2022/01/25 07:33:53;;;;;;;21.57;9.27;;;;;;;;;;5043232;28;20314;-75
2022/01/25 07:36:20;;;;;;;21.73;8.37;;;;;;;;;;5046456;28;20199;-75
2022/01/25 07:38:47;;;;;;;22.23;8.97;;;;;;;;;;5040683;28;20207;-74
2022/01/25 07:41:14;;;;;;;21.13;9.17;;;;;;;;;;5042677;28;20802;-75
2022/01/25 07:43:41;;;;;;;19.20;8.53;;;;;;;;;;5044770;28;20250;-76
2022/01/25 07:46:09;;;;;;;24.57;8.67;;;;;;;;;;5038430;28;20286;-76
2022/01/25 07:48:36;;;;;;;19.70;8.23;;;;;;;;;;5039172;28;20226;-75
2022/01/25 07:51:05;;;;;;;20.67;7.83;;;;;;;;;;5040004;28;20204;-75
2022/01/25 07:53:32;;;;;;;23.67;8.00;;;;;;;;;;5045810;28;20706;-76
2022/01/25 07:55:59;;;;;;;17.90;7.77;;;;;;;;;;5043826;28;20207;-75
2022/01/25 07:58:26;;;;;;;18.30;7.37;;;;;;;;;;5037823;28;20214;-76
2022/01/25 08:00:53;;;;;;;18.03;7.50;;;;;;;;;;5039718;28;20214;-75
2022/01/25 08:03:21;;;;;;;23.40;9.10;;;;;;;;;;5041070;28;20227;-75
2022/01/25 08:05:48;;;;;;;20.27;8.57;;;;;;;;;;5045990;28;20652;-75
2022/01/25 08:08:17;;;;;;;23.47;8.60;;;;;;;;;;5046182;28;20681;-74
2022/01/25 08:10:44;;;;;;;21.33;9.00;;;;;;;;;;5045972;28;20207;-75
2022/01/25 08:13:11;;;;;;;17.00;7.97;;;;;;;;;;5043610;28;20242;-74
2022/01/25 08:15:38;;;;;;;21.67;8.60;;;;;;;;;;5039784;28;20199;-74
2022/01/25 08:18:05;;;;;;;24.23;8.87;;;;;;;;;;5045190;28;20665;-75
2022/01/25 08:20:33;;;;;;;28.27;8.97;;;;;;;;;;5043951;28;20207;-75
2022/01/25 08:23:00;;;;;;;24.70;9.37;;;;;;;;;;5045375;28;20326;-75
2022/01/25 08:25:29;;;;;;;21.90;8.93;;;;;;;;;;5043791;28;20728;-74
2022/01/25 08:27:56;;;;;;;19.87;8.97;;;;;;;;;;5044188;28;20737;-75
2022/01/25 08:30:23;;;;;;;19.67;8.50;;;;;;;;;;5044344;28;20646;-75
2022/01/25 08:32:51;;;;;;;25.40;9.57;;;;;;;;;;5045460;28;20254;-74
2022/01/25 08:35:18;;;;;;;25.90;8.83;;;;;;;;;;5044701;28;20217;-75
2022/01/25 08:37:45;;;;;;;22.50;9.13;;;;;;;;;;5045165;28;20641;-75
2022/01/25 08:40:13;;;;;;;24.03;9.17;;;;;;;;;;5045028;28;20211;-75
2022/01/25 08:42:41;;;;;;;20.60;8.70;;;;;;;;;;5044439;28;20584;-75
2022/01/25 08:45:09;;;;;;;22.60;8.97;;;;;;;;;;5044180;28;20412;-75
2022/01/25 08:47:37;;;;;;;28.07;8.67;;;;;;;;;;5044139;28;20297;-75
2022/01/25 08:50:04;;;;;;;18.00;7.97;;;;;;;;;;5036866;28;20203;-75
2022/01/25 08:52:32;;;;;;;20.40;8.60;;;;;;;;;;5036789;28;20214;-75
2022/01/25 08:54:59;;;;;;;25.67;8.60;;;;;;;;;;5035805;28;20206;-75
2022/01/25 08:57:27;;;;;;;25.43;10.53;;;;;;;;;;5043496;28;20268;-75
2022/01/25 08:59:55;;;;;;;28.03;9.43;;;;;;;;;;5041800;28;20668;-75
2022/01/25 09:02:23;;;;;;;24.67;9.17;;;;;;;;;;5042442;28;20280;-74
2022/01/25 09:04:50;;;;;;;23.77;10.53;;;;;;;;;;5044512;28;20203;-75
2022/01/25 09:07:17;;;;;;;30.37;11.60;;;;;;;;;;5041567;28;20207;-75
2022/01/25 09:09:44;;;;;;;25.47;10.40;;;;;;;;;;5042921;28;20232;-75
2022/01/25 09:12:12;;;;;;;26.87;10.77;;;;;;;;;;5038130;28;20294;-74
2022/01/25 09:14:39;;;;;;;29.00;10.80;;;;;;;;;;5045818;28;20306;-75
2022/01/25 09:17:10;;;;;;;33.43;11.67;;;;;;;;;;5046735;28;20593;-75
2022/01/25 09:19:38;;;;;;;31.33;12.00;;;;;;;;;;5044001;28;20256;-75
2022/01/25 09:22:05;;;;;;;29.47;12.27;;;;;;;;;;5042916;28;20224;-75
2022/01/25 09:24:33;;;;;;;34.70;12.10;;;;;;;;;;5044786;28;20313;-75
2022/01/25 09:27:01;;;;;;;29.37;12.10;;;;;;;;;;5041086;28;20360;-75
2022/01/25 09:29:28;;;;;;;27.63;12.23;;;;;;;;;;5045262;28;20296;-75
2022/01/25 09:31:56;;;;;;;30.57;12.47;;;;;;;;;;5040060;28;20302;-75
2022/01/25 09:34:25;;;;;;;29.63;12.77;;;;;;;;;;5042179;28;20224;-75
2022/01/25 09:36:53;;;;;;;30.33;11.13;;;;;;;;;;5041997;28;20198;-74
2022/01/25 09:39:21;;;;;;;27.70;11.53;;;;;;;;;;5042654;28;20210;-75
2022/01/25 09:41:48;;;;;;;27.07;11.47;;;;;;;;;;5044110;28;20369;-75
2022/01/25 09:44:16;;;;;;;29.77;11.87;;;;;;;;;;5039747;28;20226;-76
2022/01/25 09:46:43;;;;;;;28.60;11.40;;;;;;;;;;5044939;28;20272;-75
2022/01/25 09:49:11;;;;;;;32.60;11.87;;;;;;;;;;5043575;28;20214;-75
2022/01/25 09:51:40;;;;;;;27.93;11.27;;;;;;;;;;5036425;28;20212;-76
2022/01/25 09:54:07;;;;;;;31.63;12.77;;;;;;;;;;5035818;28;20227;-74
2022/01/25 09:56:35;;;;;;;35.07;12.97;;;;;;;;;;5043697;28;20218;-75
2022/01/25 09:59:02;;;;;;;33.80;11.83;;;;;;;;;;5039457;28;20233;-75
2022/01/25 10:01:30;;;;;;;31.07;11.60;;;;;;;;;;5038006;28;20206;-74
2022/01/25 10:03:58;;;;;;;33.37;12.03;;;;;;;;;;5043578;28;20239;-74
2022/01/25 10:06:31;;;;;;;29.07;11.87;;;;;;;;;;5040179;28;20195;-75
2022/01/25 10:09:00;;;;;;;31.40;12.17;;;;;;;;;;5041253;28;20199;-75
2022/01/25 10:11:27;;;;;;;35.57;12.00;;;;;;;;;;5044429;28;20206;-75
2022/01/25 10:13:57;;;;;;;27.37;11.77;;;;;;;;;;5043895;28;20341;-74
2022/01/25 10:16:30;;;;;;;28.87;11.33;;;;;;;;;;5046181;28;20265;-75
2022/01/25 10:18:59;;;;;;;30.20;12.40;;;;;;;;;;5039652;28;20246;-75
2022/01/25 10:21:27;;;;;;;30.70;12.27;;;;;;;;;;5040705;28;20234;-74
2022/01/25 10:24:03;;;;;;;28.80;12.27;;;;;;;;;;5041337;28;20223;-75
2022/01/25 10:26:31;;;;;;;30.63;11.83;;;;;;;;;;5037703;28;20206;-77
2022/01/25 10:28:59;;;;;;;32.17;12.67;;;;;;;;;;5042831;28;20218;-77
2022/01/25 10:31:34;;;;;;;30.03;12.10;;;;;;;;;;5043498;28;20762;-77
2022/01/25 10:34:01;;;;;;;27.50;11.63;;;;;;;;;;5041553;28;20722;-77
2022/01/25 10:36:28;;;;;;;30.77;11.90;;;;;;;;;;5046752;28;20297;-77
2022/01/25 10:38:56;;;;;;;28.27;10.97;;;;;;;;;;5044299;28;20306;-77
2022/01/25 10:41:26;;;;;;;24.73;12.03;;;;;;;;;;5042515;28;20683;-77
2022/01/25 10:43:54;;;;;;;29.40;11.87;;;;;;;;;;5043337;28;20238;-77
2022/01/25 10:46:24;;;;;;;27.30;12.07;;;;;;;;;;5042448;28;20665;-77
2022/01/25 10:48:53;;;;;;;32.57;12.67;;;;;;;;;;5046312;28;20207;-77
2022/01/25 10:51:23;;;;;;;29.03;12.33;;;;;;;;;;5047121;28;20278;-77
2022/01/25 10:54:01;;;;;;;30.37;12.83;;;;;;;;;;5046640;28;20656;-77
2022/01/25 10:56:35;;;;;;;29.13;13.03;;;;;;;;;;5046270;28;20872;-77
2022/01/25 10:59:04;;;;;;;30.30;12.97;;;;;;;;;;5045316;28;20862;-77
2022/01/25 11:01:32;;;;;;;36.10;14.43;;;;;;;;;;5046926;28;20213;-77
2022/01/25 11:04:05;;;;;;;36.93;13.43;;;;;;;;;;5043375;28;20729;-78
2022/01/25 11:06:32;;;;;;;31.03;12.90;;;;;;;;;;5047212;28;20204;-78
2022/01/25 11:09:02;;;;;;;34.77;13.83;;;;;;;;;;5045038;28;20298;-76
2022/01/25 11:11:33;;;;;;;33.90;13.33;;;;;;;;;;5044584;28;20210;-80
2022/01/25 11:14:50;;;;;;;33.50;12.40;;;;;;;;;;5046299;28;20226;-78
2022/01/25 11:16:50;;;;;;;25.87;11.47;;;;;;;;;;5040748;28;20593;-78
2022/01/25 11:19:17;;;;;;;28.30;12.43;;;;;;;;;;5039149;28;20362;-78
2022/01/25 11:21:44;;;;;;;27.47;12.67;;;;;;;;;;5044961;28;20207;-78
2022/01/25 11:24:13;;;;;;;30.53;12.47;;;;;;;;;;5044601;28;20234;-78
2022/01/25 11:26:40;;;;;;;32.33;12.70;;;;;;;;;;5040739;28;20237;-78
2022/01/25 11:29:09;;;;;;;33.07;12.80;;;;;;;;;;5043154;28;20203;-78
2022/01/25 11:31:38;;;;;;;28.33;12.97;;;;;;;;;;5046019;28;20627;-78
2022/01/25 11:34:07;;;;;;;27.50;12.27;;;;;;;;;;5042234;28;20219;-78
2022/01/25 11:36:42;;;;;;;30.33;12.80;;;;;;;;;;5047067;28;20203;-78
2022/01/25 11:39:11;;;;;;;30.93;12.97;;;;;;;;;;5045988;28;20200;-78
2022/01/25 11:41:42;;;;;;;33.67;12.93;;;;;;;;;;5043687;28;20988;-78
2022/01/25 11:44:11;;;;;;;34.40;13.60;;;;;;;;;;5043185;28;20230;-78
2022/01/25 11:46:40;;;;;;;34.63;14.23;;;;;;;;;;5039857;28;20666;-78
2022/01/25 11:49:08;;;;;;;28.07;12.27;;;;;;;;;;5044165;28;20291;-78
2022/01/25 11:51:35;;;;;;;29.47;12.30;;;;;;;;;;5039124;28;20207;-77
2022/01/25 11:54:04;;;;;;;30.10;11.63;;;;;;;;;;5038199;28;20224;-78
2022/01/25 11:56:32;;;;;;;25.87;11.57;;;;;;;;;;5041513;28;20203;-78
2022/01/25 11:59:00;;;;;;;37.60;13.87;;;;;;;;;;5043981;28;20212;-78
2022/01/25 12:01:29;;;;;;;31.70;12.97;;;;;;;;;;5042290;28;20210;-78
2022/01/25 12:03:59;;;;;;;32.83;13.97;;;;;;;;;;5041281;28;20321;-78
2022/01/25 12:06:28;;;;;;;32.80;11.90;;;;;;;;;;5042074;28;20659;-78
2022/01/25 12:09:13;;;;;;;30.83;12.30;;;;;;;;;;5044492;28;20265;-77
2022/01/25 12:11:44;;;;;;;34.83;12.57;;;;;;;;;;5046158;28;20215;-78
2022/01/25 12:14:16;;;;;;;35.97;13.10;;;;;;;;;;5045129;28;20228;-78
2022/01/25 12:16:46;;;;;;;36.27;14.90;;;;;;;;;;5041901;28;20288;-78
2022/01/25 12:19:14;;;;;;;42.20;14.97;;;;;;;;;;5041296;28;20245;-78
2022/01/25 12:21:54;;;;;;;30.17;12.90;;;;;;;;;;5042740;28;20230;-78
2022/01/25 12:24:26;;;;;;;34.40;12.30;;;;;;;;;;5042297;28;20322;-78
2022/01/25 12:27:02;;;;;;;34.83;12.07;;;;;;;;;;5044060;28;20206;-77
2022/01/25 12:29:33;;;;;;;29.67;12.30;;;;;;;;;;5041952;28;20207;-77
2022/01/25 12:32:21;;;;;;;37.60;13.53;;;;;;;;;;5043961;28;20282;-78
2022/01/25 12:34:58;;;;;;;38.00;13.20;;;;;;;;;;5046035;28;20358;-78
2022/01/25 12:37:45;;;;;;;36.17;13.53;;;;;;;;;;5046214;28;20249;-78
2022/01/25 12:40:32;;;;;;;33.10;13.00;;;;;;;;;;5044329;28;20668;-78
2022/01/25 12:43:00;;;;;;;33.23;12.73;;;;;;;;;;5041604;28;20612;-78
2022/01/25 12:45:28;;;;;;;30.50;12.63;;;;;;;;;;5045178;28;20294;-78
2022/01/25 12:47:59;;;;;;;26.67;11.10;;;;;;;;;;5043057;28;20207;-78
2022/01/25 12:50:26;;;;;;;28.17;11.20;;;;;;;;;;5045448;28;20215;-78
2022/01/25 12:52:53;;;;;;;33.47;12.07;;;;;;;;;;5043980;28;20607;-78
2022/01/25 12:55:24;;;;;;;26.83;12.97;;;;;;;;;;5046622;28;20290;-78
2022/01/25 12:57:52;;;;;;;107.13;49.97;;;;;;;;;;5043588;28;20213;-78
2022/01/25 13:00:20;;;;;;;146.53;65.40;;;;;;;;;;5046521;28;20207;-78
2022/01/25 13:02:47;;;;;;;67.40;34.50;;;;;;;;;;5046365;28;20234;-78
2022/01/25 13:05:16;;;;;;;34.43;16.40;;;;;;;;;;5046095;28;20297;-78
2022/01/25 13:07:44;;;;;;;26.77;11.63;;;;;;;;;;5046646;28;20223;-78
2022/01/25 13:10:12;;;;;;;28.73;11.90;;;;;;;;;;5047611;28;20215;-78
2022/01/25 13:12:55;;;;;;;35.40;11.73;;;;;;;;;;5044264;28;20247;-78
2022/01/25 13:15:50;;;;;;;24.63;10.30;;;;;;;;;;5047568;28;20207;-78
2022/01/25 13:18:17;;;;;;;29.07;11.70;;;;;;;;;;5043803;28;20229;-78
2022/01/25 13:20:48;;;;;;;28.53;11.93;;;;;;;;;;5045844;28;20211;-78
2022/01/25 13:23:15;;;;;;;29.60;11.37;;;;;;;;;;5045160;28;20252;-78
2022/01/25 13:25:54;;;;;;;33.77;14.67;;;;;;;;;;5041272;28;20206;-78
2022/01/25 13:28:34;;;;;;;34.07;13.70;;;;;;;;;;5042794;28;20564;-78
2022/01/25 13:31:01;;;;;;;33.60;14.33;;;;;;;;;;5043714;28;20216;-78
2022/01/25 13:33:29;;;;;;;26.73;12.10;;;;;;;;;;5041524;28;20310;-78
2022/01/25 13:36:00;;;;;;;30.90;14.47;;;;;;;;;;5043441;28;20218;-78
2022/01/25 13:38:29;;;;;;;26.30;10.47;;;;;;;;;;5042927;28;20913;-78
2022/01/25 13:41:01;;;;;;;28.53;10.97;;;;;;;;;;5044785;28;20225;-78
2022/01/25 13:46:16;;;;;;;24.37;9.97;;;;;;;;;;5043862;28;20574;-78
2022/01/25 13:48:44;;;;;;;22.70;10.77;;;;;;;;;;5045519;28;20270;-78
2022/01/25 13:51:15;;;;;;;25.07;11.00;;;;;;;;;;5045911;28;20665;-78
2022/01/25 13:53:42;;;;;;;22.73;9.80;;;;;;;;;;5045657;28;20305;-78
2022/01/25 13:56:10;;;;;;;24.70;8.70;;;;;;;;;;5042881;28;20840;-78
2022/01/25 13:58:40;;;;;;;24.07;9.13;;;;;;;;;;5044665;28;20207;-77
2022/01/25 14:01:09;;;;;;;20.90;8.93;;;;;;;;;;5043088;28;20215;-77
2022/01/25 14:03:38;;;;;;;20.70;9.87;;;;;;;;;;5039508;28;20224;-77
2022/01/25 14:09:03;;;;;;;24.43;9.40;;;;;;;;;;5114115;27;20542;-76
2022/01/25 14:11:37;;;;;;;20.23;8.60;;;;;;;;;;5099858;28;20229;-77
2022/01/25 14:22:45;;;;;;;17.63;7.57;;;;;;;;;;5089815;28;20261;-78
2022/01/25 14:25:14;;;;;;;17.93;8.10;;;;;;;;;;5096631;28;20221;-77
2022/01/25 14:27:50;;;;;;;20.77;8.83;;;;;;;;;;5097800;28;20221;-77
2022/01/25 14:30:18;;;;;;;19.20;9.20;;;;;;;;;;5096365;28;20646;-77
2022/01/25 14:32:45;;;;;;;19.73;8.77;;;;;;;;;;5092575;28;20585;-77
2022/01/25 14:35:14;;;;;;;17.63;8.77;;;;;;;;;;5098511;28;20264;-77
2022/01/25 14:37:42;;;;;;;23.97;9.60;;;;;;;;;;5094945;28;20202;-77
2022/01/25 14:40:11;;;;;;;22.70;9.10;;;;;;;;;;5094338;28;20208;-77
2022/01/25 14:42:40;;;;;;;23.03;8.60;;;;;;;;;;5095927;28;20201;-77
2022/01/25 14:45:12;;;;;;;25.10;10.70;;;;;;;;;;5094400;28;20285;-77
2022/01/25 14:47:41;;;;;;;25.87;12.87;;;;;;;;;;5099864;28;20687;-77
2022/01/25 14:50:16;;;;;;;26.87;11.80;;;;;;;;;;5097643;28;20209;-77
2022/01/25 14:52:43;;;;;;;14.93;7.97;;;;;;;;;;5095811;28;20536;-77
2022/01/25 14:55:19;;;;;;;23.60;11.63;;;;;;;;;;5097025;28;20236;-77
2022/01/25 14:58:03;;;;;;;25.63;11.13;;;;;;;;;;5099723;28;20521;-78
2022/01/25 15:00:31;;;;;;;25.47;11.10;;;;;;;;;;5090508;28;20201;-77
2022/01/25 15:02:58;;;;;;;22.67;9.03;;;;;;;;;;5094317;28;20243;-77
2022/01/25 15:05:25;;;;;;;18.97;8.33;;;;;;;;;;5091234;28;20602;-77
2022/01/25 15:07:52;;;;;;;19.13;8.53;;;;;;;;;;5093477;28;20679;-78
2022/01/25 15:10:21;;;;;;;20.27;10.03;;;;;;;;;;5096264;28;20197;-78
2022/01/25 15:12:50;;;;;;;21.13;8.83;;;;;;;;;;5098597;28;20373;-78
2022/01/25 15:15:25;;;;;;;25.73;9.87;;;;;;;;;;5096898;28;20205;-78
2022/01/25 15:17:53;;;;;;;19.10;8.40;;;;;;;;;;5098402;28;20204;-78
2022/01/25 15:20:20;;;;;;;18.57;9.27;;;;;;;;;;5082416;28;20376;-77
2022/01/25 15:22:48;;;;;;;39.27;16.90;;;;;;;;;;5082352;28;20353;-78
2022/01/25 15:25:21;;;;;;;474.00;128.67;;;;;;;;;;5082321;28;20676;-78
2022/01/25 15:27:50;;;;;;;491.53;145.50;;;;;;;;;;5078693;28;20225;-78
2022/01/25 15:30:19;;;;;;;604.20;196.67;;;;;;;;;;5082531;28;20227;-78
2022/01/25 15:32:46;;;;;;;478.10;150.07;;;;;;;;;;5077382;28;20232;-78
2022/01/25 15:35:15;;;;;;;351.37;118.40;;;;;;;;;;5082498;28;20234;-78
2022/01/25 15:37:44;;;;;;;116.43;43.77;;;;;;;;;;5086088;28;20209;-78
2022/01/25 15:40:11;;;;;;;40.40;17.27;;;;;;;;;;5082844;28;20213;-78
2022/01/25 15:42:39;;;;;;;18.07;8.63;;;;;;;;;;5085406;28;20296;-78
2022/01/25 15:45:21;;;;;;;17.57;7.73;;;;;;;;;;5082292;28;20238;-78
2022/01/25 15:47:50;;;;;;;20.17;7.17;;;;;;;;;;5083649;28;20244;-78
2022/01/25 15:50:18;;;;;;;19.37;8.13;;;;;;;;;;5089009;28;20642;-78
2022/01/25 15:52:45;;;;;;;20.37;7.17;;;;;;;;;;5083662;28;20213;-78
2022/01/25 15:55:12;;;;;;;17.93;8.37;;;;;;;;;;5082800;28;20198;-78
2022/01/25 15:57:40;;;;;;;15.23;7.73;;;;;;;;;;5087656;28;20220;-78
2022/01/25 16:00:08;;;;;;;19.03;8.27;;;;;;;;;;5081704;28;20230;-78
2022/01/25 16:02:35;;;;;;;17.27;8.10;;;;;;;;;;5083757;28;20203;-78